createdAt,value
2023-01-18T00:37:11.023Z,98598.31
2023-01-18T00:38:13.332Z,98594.47
2023-01-18T00:39:15.805Z,98596.00
2023-01-18T00:40:19.962Z,98592.34
2023-01-18T00:41:22.846Z,98596.45
2023-01-18T00:42:43.540Z,98590.20
2023-01-18T00:43:46.573Z,98591.54
2023-01-18T00:44:49.232Z,98591.00
2023-01-18T00:45:51.539Z,98592.80
2023-01-18T00:46:55.515Z,98592.80
2023-01-18T00:47:57.768Z,98589.16
2023-01-18T00:49:00.673Z,98593.92
2023-01-18T00:50:03.275Z,98591.71
2023-01-18T00:51:07.008Z,98598.22
2023-01-18T00:52:09.203Z,98602.31
2023-01-18T00:53:11.272Z,98600.08
2023-01-18T00:54:13.292Z,98600.08
2023-01-18T00:55:16.843Z,98592.98
2023-01-18T00:56:21.573Z,98594.62
2023-01-18T00:57:24.201Z,98580.40
2023-01-18T00:58:28.113Z,98592.13
2023-01-18T00:59:30.478Z,98577.72
2023-01-18T01:00:32.892Z,98575.05
2023-01-18T01:01:35.830Z,98581.98
2023-01-18T01:02:42.015Z,98586.88
2023-01-18T01:04:03.010Z,98577.40
2023-01-18T01:05:24.155Z,98577.45
2023-01-18T01:06:45.759Z,98578.59
2023-01-18T01:07:49.034Z,98582.77
2023-01-18T01:08:51.109Z,98583.19
2023-01-18T01:09:53.108Z,98585.85
2023-01-18T01:11:10.706Z,98580.06
2023-01-18T01:12:31.808Z,98584.78
2023-01-18T01:13:53.203Z,98591.84
2023-01-18T01:15:14.537Z,98585.85
2023-01-18T01:16:35.794Z,98586.62
2023-01-18T01:17:57.384Z,98578.31
2023-01-18T01:19:17.637Z,98579.13
2023-01-18T01:20:39.661Z,98579.38
2023-01-18T01:22:00.723Z,98581.38
2023-01-18T01:23:40.907Z,98585.44
2023-01-18T01:25:01.776Z,98570.36
2023-01-18T01:26:12.642Z,98571.88
2023-01-18T01:27:15.328Z,98567.48
2023-01-18T01:28:17.721Z,98572.16
2023-01-18T01:29:19.744Z,98568.67
2023-01-18T01:30:22.489Z,98580.81
2023-01-18T01:31:24.697Z,98574.13
2023-01-18T01:32:27.017Z,98559.95
2023-01-18T01:33:30.337Z,98560.16
2023-01-18T01:34:32.896Z,98562.52
2023-01-18T01:35:35.409Z,98563.51
2023-01-18T01:36:38.165Z,98565.03
2023-01-18T01:37:40.418Z,98556.38
2023-01-18T01:38:42.934Z,98554.70
2023-01-18T01:39:44.874Z,98562.73
2023-01-18T01:40:55.560Z,98560.80
2023-01-18T01:41:58.991Z,98550.67
2023-01-18T01:43:01.452Z,98554.24
2023-01-18T01:44:19.496Z,98565.19
2023-01-18T01:45:25.244Z,98562.16
2023-01-18T01:46:52.389Z,98569.78
2023-01-18T01:47:57.034Z,98562.64
2023-01-18T01:49:21.055Z,98557.44
2023-01-18T01:50:29.744Z,98557.44
2023-01-18T01:51:34.854Z,98554.86
2023-01-18T01:52:40.661Z,98549.61
2023-01-18T01:53:43.009Z,98549.24
2023-01-18T01:54:51.785Z,98548.02
2023-01-18T01:55:56.006Z,98548.02
2023-01-18T01:57:03.929Z,98553.31
2023-01-18T01:58:12.617Z,98551.50
2023-01-18T01:59:16.204Z,98544.81
2023-01-18T02:00:23.222Z,98545.23
2023-01-18T02:01:28.124Z,98541.94
2023-01-18T02:02:33.576Z,98535.72
2023-01-18T02:03:39.410Z,98542.55
2023-01-18T02:04:43.741Z,98542.42
2023-01-18T02:05:52.389Z,98537.55
2023-01-18T02:06:54.679Z,98533.61
2023-01-18T02:08:02.789Z,98539.65
2023-01-18T02:09:11.459Z,98535.47
2023-01-18T02:10:15.099Z,98534.70
2023-01-18T02:11:17.216Z,98528.05
2023-01-18T02:12:19.853Z,98538.22
2023-01-18T02:13:25.477Z,98539.07
2023-01-18T02:14:27.768Z,98541.66
2023-01-18T02:17:05.682Z,98532.09
2023-01-18T02:18:17.027Z,98528.42
2023-01-18T02:19:44.672Z,98524.45
2023-01-18T02:21:16.761Z,98527.08
2023-01-18T02:22:56.754Z,98527.36
2023-01-18T02:24:21.149Z,98539.38
2023-01-18T02:25:51.539Z,98522.81
2023-01-18T02:27:00.712Z,98520.93
2023-01-18T02:28:09.505Z,98525.06
2023-01-18T02:29:17.477Z,98531.91
2023-01-18T02:30:23.505Z,98524.16
2023-01-18T02:31:28.684Z,98524.45
2023-01-18T02:32:53.180Z,98528.22
2023-01-18T02:34:10.257Z,98527.16
2023-01-18T02:35:25.741Z,98525.56
2023-01-18T02:36:48.228Z,98523.19
2023-01-18T02:38:06.037Z,98515.15
2023-01-18T02:39:16.782Z,98515.77
2023-01-18T02:40:44.121Z,98518.01
2023-01-18T02:42:08.486Z,98527.35
2023-01-18T02:43:32.665Z,98523.14
2023-01-18T02:44:57.239Z,98523.54
2023-01-18T02:46:19.349Z,98521.94
2023-01-18T02:47:23.477Z,98521.70
2023-01-18T02:48:29.580Z,98512.91
2023-01-18T02:49:32.359Z,98505.20
2023-01-18T02:50:35.054Z,98508.94
2023-01-18T02:51:37.781Z,98511.39
2023-01-18T02:52:45.010Z,98504.38
2023-01-18T02:53:48.373Z,98502.95
2023-01-18T02:54:51.269Z,98506.27
2023-01-18T02:56:02.999Z,98509.16
2023-01-18T02:57:09.155Z,98518.80
2023-01-18T02:58:17.898Z,98517.98
2023-01-18T02:59:23.688Z,98510.53
2023-01-18T03:00:27.827Z,98514.50
2023-01-18T03:01:33.920Z,98512.82
2023-01-18T03:02:38.374Z,98512.22
2023-01-18T03:03:44.051Z,98506.19
2023-01-18T03:04:55.475Z,98513.89
2023-01-18T03:06:01.131Z,98508.60
2023-01-18T03:07:16.872Z,98508.47
2023-01-18T03:08:28.553Z,98506.28
2023-01-18T03:09:31.523Z,98495.03
2023-01-18T03:10:37.561Z,98501.19
2023-01-18T03:12:02.118Z,98495.03
2023-01-18T03:13:17.152Z,98492.14
2023-01-18T03:14:57.859Z,98495.67
2023-01-18T03:16:23.042Z,98493.00
2023-01-18T03:17:35.682Z,98486.03
2023-01-18T03:18:43.292Z,98490.90
2023-01-18T03:20:09.264Z,98468.73
2023-01-18T03:21:11.858Z,98458.45
2023-01-18T03:22:14.471Z,98467.05
2023-01-18T03:23:40.575Z,98472.16
2023-01-18T03:24:45.536Z,98475.16
2023-01-18T03:25:54.317Z,98471.03
2023-01-18T03:27:16.981Z,98478.48
2023-01-18T03:28:57.963Z,98480.07
2023-01-18T03:30:18.465Z,98471.81
2023-01-18T03:32:07.068Z,98474.19
2023-01-18T03:33:28.573Z,98460.29
2023-01-18T03:34:40.227Z,98478.09
2023-01-18T03:35:43.783Z,98482.97
2023-01-18T03:36:48.913Z,98479.61
2023-01-18T03:37:53.176Z,98483.95
2023-01-18T03:39:04.965Z,98492.31
2023-01-18T03:40:17.078Z,98476.00
2023-01-18T03:41:20.957Z,98481.24
2023-01-18T03:42:33.202Z,98491.91
2023-01-18T03:43:37.187Z,98485.72
2023-01-18T03:44:43.631Z,98491.33
2023-01-18T03:45:48.784Z,98487.84
2023-01-18T03:46:51.540Z,98499.55
2023-01-18T03:47:54.169Z,98493.30
2023-01-18T03:48:56.623Z,98486.75
2023-01-18T03:49:58.839Z,98490.88
2023-01-18T03:51:35.073Z,98490.23
2023-01-18T03:52:42.375Z,98480.77
2023-01-18T03:53:51.133Z,98488.59
2023-01-18T03:54:56.943Z,98497.23
2023-01-18T03:56:05.979Z,98495.81
2023-01-18T03:58:36.049Z,98488.43
2023-01-18T03:59:38.888Z,98495.05
2023-01-18T04:00:41.555Z,98493.88
2023-01-18T04:01:48.268Z,98495.11
2023-01-18T04:02:50.851Z,98491.48
2023-01-18T04:03:52.984Z,98482.97
2023-01-18T04:04:56.989Z,98488.00
2023-01-18T04:06:02.746Z,98488.70
2023-01-18T04:07:04.783Z,98495.88
2023-01-18T04:08:07.380Z,98484.52
2023-01-18T04:09:11.277Z,98489.68
2023-01-18T04:10:14.396Z,98492.02
2023-01-18T04:11:17.107Z,98489.20
2023-01-18T04:12:19.742Z,98487.61
2023-01-18T04:13:22.482Z,98498.63
2023-01-18T04:14:24.935Z,98490.92
2023-01-18T04:15:27.348Z,98496.95
2023-01-18T04:16:29.878Z,98494.41
2023-01-18T04:17:32.249Z,98494.37
2023-01-18T04:18:34.251Z,98493.17
2023-01-18T04:19:36.358Z,98488.30
2023-01-18T04:20:38.403Z,98477.80
2023-01-18T04:21:40.528Z,98484.25
2023-01-18T04:22:42.904Z,98482.48
2023-01-18T04:23:44.911Z,98487.89
2023-01-18T04:24:47.016Z,98492.20
2023-01-18T04:25:50.752Z,98488.20
2023-01-18T04:26:52.868Z,98486.48
2023-01-18T04:27:55.077Z,98482.78
2023-01-18T04:28:56.918Z,98492.08
2023-01-18T04:29:59.810Z,98486.75
2023-01-18T04:31:02.168Z,98486.75
2023-01-18T04:32:05.713Z,98488.30
2023-01-18T04:33:07.877Z,98489.41
2023-01-18T04:34:10.072Z,98479.16
2023-01-18T04:35:12.886Z,98484.78
2023-01-18T04:36:15.364Z,98488.00
2023-01-18T04:37:17.347Z,98489.73
2023-01-18T04:38:20.495Z,98490.59
2023-01-18T04:39:23.256Z,98494.69
2023-01-18T04:40:25.236Z,98502.22
2023-01-18T04:41:27.719Z,98490.90
2023-01-18T04:42:30.512Z,98488.61
2023-01-18T04:43:32.589Z,98489.52
2023-01-18T04:44:34.646Z,98493.48
2023-01-18T04:45:36.805Z,98492.39
2023-01-18T04:46:39.436Z,98484.64
2023-01-18T04:47:42.252Z,98493.38
2023-01-18T04:48:44.308Z,98500.44
2023-01-18T04:49:46.397Z,98500.56
2023-01-18T04:50:48.850Z,98494.37
2023-01-18T04:51:50.834Z,98499.58
2023-01-18T04:52:52.691Z,98499.66
2023-01-18T04:53:55.159Z,98501.13
2023-01-18T04:54:57.421Z,98506.30
2023-01-18T04:55:59.642Z,98499.37
2023-01-18T04:57:01.943Z,98503.62
2023-01-18T04:58:04.094Z,98495.59
2023-01-18T04:59:08.180Z,98494.55
2023-01-18T05:00:15.362Z,98500.27
2023-01-18T05:01:19.495Z,98493.59
2023-01-18T05:02:22.113Z,98495.56
2023-01-18T05:03:24.446Z,98495.69
2023-01-18T05:04:26.895Z,98499.05
2023-01-18T05:05:29.082Z,98499.58
2023-01-18T05:06:31.430Z,98501.20
2023-01-18T05:07:33.771Z,98498.38
2023-01-18T05:08:38.191Z,98490.11
2023-01-18T05:09:40.696Z,98482.57
2023-01-18T05:10:43.237Z,98485.07
2023-01-18T05:11:45.491Z,98484.25
2023-01-18T05:12:47.518Z,98487.81
2023-01-18T05:13:49.565Z,98476.84
2023-01-18T05:14:51.707Z,98482.00
2023-01-18T05:15:54.144Z,98472.23
2023-01-18T05:16:56.909Z,98472.23
2023-01-18T05:17:58.951Z,98468.91
2023-01-18T05:19:01.106Z,98468.91
2023-01-18T05:20:07.291Z,98477.67
2023-01-18T05:21:09.863Z,98471.20
2023-01-18T05:22:12.591Z,98472.58
2023-01-18T05:23:14.594Z,98466.86
2023-01-18T05:24:17.225Z,98479.92
2023-01-18T05:25:19.624Z,98460.25
2023-01-18T05:26:23.555Z,98457.67
2023-01-18T05:27:25.828Z,98462.97
2023-01-18T05:28:27.928Z,98464.93
2023-01-18T05:29:30.226Z,98450.97
2023-01-18T05:30:33.021Z,98462.84
2023-01-18T05:31:35.699Z,98466.45
2023-01-18T05:32:38.406Z,98460.25
2023-01-18T05:33:41.096Z,98450.97
2023-01-18T05:34:43.514Z,98450.97
2023-01-18T05:35:51.503Z,98464.44
2023-01-18T05:36:53.772Z,98467.23
2023-01-18T05:37:55.743Z,98468.91
2023-01-18T05:38:57.702Z,98469.03
2023-01-18T05:40:00.212Z,98471.69
2023-01-18T05:41:02.397Z,98468.61
2023-01-18T05:42:05.099Z,98464.36
2023-01-18T05:43:07.371Z,98473.70
2023-01-18T05:44:10.795Z,98477.34
2023-01-18T05:45:14.342Z,98471.77
2023-01-18T05:46:16.611Z,98471.77
2023-01-18T05:47:18.908Z,98467.43
2023-01-18T05:48:21.510Z,98470.02
2023-01-18T05:49:23.944Z,98473.91
2023-01-18T09:50:28.099Z,98293.06
2023-01-18T09:51:58.270Z,98294.50
2023-01-18T09:53:25.057Z,98295.23
2023-01-18T09:54:43.363Z,98274.89
2023-01-18T09:55:56.401Z,98284.05
2023-01-18T09:57:17.540Z,98278.37
2023-01-18T09:58:44.719Z,98273.20
2023-01-18T09:59:53.720Z,98278.37
2023-01-18T10:01:00.221Z,98280.52
2023-01-18T10:02:06.343Z,98277.33
2023-01-18T10:03:24.422Z,98283.52
2023-01-18T10:04:35.050Z,98277.98
2023-01-18T10:05:41.710Z,98284.99
2023-01-18T10:06:47.632Z,98287.33
2023-01-18T10:07:58.392Z,98280.48
2023-01-18T10:09:04.684Z,98266.05
2023-01-18T10:10:11.885Z,98284.64
2023-01-18T10:11:20.544Z,98287.33
2023-01-18T10:12:32.641Z,98277.33
2023-01-18T10:13:51.377Z,98269.05
2023-01-18T10:15:05.836Z,98266.62
2023-01-18T10:16:12.703Z,98257.58
2023-01-18T10:17:20.508Z,98278.95
2023-01-18T10:18:23.575Z,98279.80
2023-01-18T10:19:30.068Z,98263.16
2023-01-18T10:20:36.509Z,98279.05
2023-01-18T10:22:04.296Z,98271.84
2023-01-18T10:23:16.561Z,98272.95
2023-01-18T10:24:22.295Z,98275.23
2023-01-18T10:25:45.325Z,98268.03
2023-01-18T10:26:51.401Z,98264.44
2023-01-18T10:28:13.427Z,98259.25
2023-01-18T10:29:19.549Z,98264.44
2023-01-18T10:30:39.801Z,98269.61
2023-01-18T10:32:01.175Z,98264.03
2023-01-18T10:33:16.004Z,98265.35
2023-01-18T10:34:21.896Z,98271.68
2023-01-18T10:35:36.053Z,98269.75
2023-01-18T10:36:42.961Z,98269.09
2023-01-18T10:37:46.027Z,98270.01
2023-01-18T10:38:51.069Z,98271.39
2023-01-18T10:39:57.401Z,98265.23
2023-01-18T10:41:01.762Z,98258.11
2023-01-18T10:42:07.637Z,98264.87
2023-01-18T10:43:14.854Z,98271.52
2023-01-18T10:44:17.818Z,98260.80
2023-01-18T10:45:23.603Z,98267.65
2023-01-18T10:46:26.246Z,98253.88
2023-01-18T10:47:28.892Z,98269.48
2023-01-18T10:48:33.486Z,98273.36
2023-01-18T10:49:42.308Z,98270.21
2023-01-18T10:50:53.122Z,98262.90
2023-01-18T10:51:56.486Z,98263.36
2023-01-18T10:53:11.269Z,98255.23
2023-01-18T10:54:28.694Z,98268.90
2023-01-18T10:55:30.927Z,98251.33
2023-01-18T10:56:33.050Z,98251.16
2023-01-18T10:57:38.774Z,98251.45
2023-01-18T10:58:57.216Z,98257.13
2023-01-18T10:59:59.566Z,98257.13
2023-01-18T11:01:03.958Z,98244.89
2023-01-18T11:02:10.405Z,98246.56
2023-01-18T11:03:14.903Z,98239.26
2023-01-18T11:04:21.120Z,98246.77
2023-01-18T11:05:38.388Z,98234.46
2023-01-18T11:06:49.874Z,98249.34
2023-01-18T11:08:12.799Z,98236.21
2023-01-18T11:09:36.239Z,98240.37
2023-01-18T11:10:39.704Z,98243.23
2023-01-18T11:12:00.173Z,98235.66
2023-01-18T11:13:03.031Z,98238.52
2023-01-18T11:14:09.399Z,98241.02
2023-01-18T11:15:18.431Z,98231.13
2023-01-18T11:16:23.508Z,98239.34
2023-01-18T11:17:25.733Z,98229.34
2023-01-18T11:18:28.775Z,98220.39
2023-01-18T11:19:31.346Z,98232.69
2023-01-18T11:20:40.684Z,98237.88
2023-01-18T11:21:51.474Z,98227.89
2023-01-18T11:24:16.256Z,98227.05
2023-01-18T11:25:18.839Z,98220.49
2023-01-18T11:26:23.010Z,98233.51
2023-01-18T11:27:25.933Z,98237.88
2023-01-18T11:28:39.271Z,98234.80
2023-01-18T11:29:44.924Z,98238.41
2023-01-18T11:31:12.909Z,98239.98
2023-01-18T11:32:28.072Z,98234.73
2023-01-18T11:33:30.508Z,98226.77
2023-01-18T11:34:40.973Z,98236.20
2023-01-18T11:35:45.264Z,98242.03
2023-01-18T11:36:47.736Z,98242.03
2023-01-18T11:37:49.919Z,98238.63
2023-01-18T11:38:51.951Z,98249.34
2023-01-18T11:39:54.146Z,98245.00
2023-01-18T11:41:12.655Z,98237.13
2023-01-18T11:42:25.169Z,98249.53
2023-01-18T11:43:30.827Z,98237.33
2023-01-18T11:44:36.836Z,98231.13
2023-01-18T11:45:59.588Z,98236.05
2023-01-18T11:47:05.840Z,98238.80
2023-01-18T11:48:13.015Z,98247.70
2023-01-18T11:49:36.518Z,98241.66
2023-01-18T11:50:49.164Z,98240.20
2023-01-18T11:52:03.396Z,98229.83
2023-01-18T11:53:12.246Z,98239.99
2023-01-18T11:54:22.143Z,98235.30
2023-01-18T11:55:37.773Z,98235.46
2023-01-18T11:56:47.063Z,98242.52
2023-01-18T11:57:52.737Z,98236.96
2023-01-18T11:58:56.204Z,98235.94
2023-01-18T11:59:59.030Z,98238.63
2023-01-18T12:01:38.191Z,98235.30
2023-01-18T12:03:20.216Z,98243.44
2023-01-18T12:04:45.057Z,98243.61
2023-01-18T12:05:54.202Z,98253.98
2023-01-18T12:07:19.589Z,98243.81
2023-01-18T12:08:40.578Z,98253.59
2023-01-18T12:10:04.160Z,98249.92
2023-01-18T12:11:12.860Z,98245.00
2023-01-18T12:12:24.365Z,98237.68
2023-01-18T12:13:39.287Z,98233.63
2023-01-18T12:14:51.281Z,98238.80
2023-01-18T12:16:09.798Z,98227.69
2023-01-18T12:17:15.658Z,98239.17
2023-01-18T12:18:27.507Z,98235.30
2023-01-18T12:19:33.423Z,98233.80
2023-01-18T12:20:42.566Z,98242.05
2023-01-18T12:21:54.510Z,98243.06
2023-01-18T12:23:25.119Z,98246.78
2023-01-18T12:24:46.270Z,98235.87
2023-01-18T12:26:12.645Z,98246.58
2023-01-18T12:27:18.400Z,98246.98
2023-01-18T12:28:43.828Z,98244.02
2023-01-18T12:30:15.670Z,98254.01
2023-01-18T12:31:24.403Z,98245.11
2023-01-18T12:32:44.767Z,98241.88
2023-01-18T12:33:54.113Z,98250.64
2023-01-18T12:35:33.445Z,98247.53
2023-01-18T12:37:05.281Z,98256.23
2023-01-18T12:38:27.699Z,98251.42
2023-01-18T12:39:52.371Z,98254.25
2023-01-18T12:41:13.537Z,98253.91
2023-01-18T12:42:25.881Z,98255.10
2023-01-18T12:43:53.375Z,98263.36
2023-01-18T12:45:16.475Z,98261.03
2023-01-18T12:46:28.520Z,98258.34
2023-01-18T12:47:45.609Z,98252.60
2023-01-18T12:48:57.179Z,98258.64
2023-01-18T12:50:02.746Z,98256.97
2023-01-18T12:51:09.776Z,98254.27
2023-01-18T12:52:19.164Z,98254.38
2023-01-18T12:53:31.596Z,98252.86
2023-01-18T12:54:39.193Z,98260.62
2023-01-18T12:55:45.103Z,98261.08
2023-01-18T12:56:51.600Z,98261.52
2023-01-18T12:57:59.949Z,98261.33
2023-01-18T12:59:05.910Z,98266.31
2023-01-18T13:00:17.468Z,98254.66
2023-01-18T13:01:22.318Z,98263.08
2023-01-18T13:02:41.256Z,98260.70
2023-01-18T13:03:46.385Z,98259.16
2023-01-18T13:04:57.947Z,98267.38
2023-01-18T13:06:03.216Z,98260.62
2023-01-18T13:07:09.197Z,98259.16
2023-01-18T13:08:15.090Z,98257.88
2023-01-18T13:09:22.877Z,98257.88
2023-01-18T13:10:27.997Z,98255.84
2023-01-18T13:11:40.954Z,98263.83
2023-01-18T13:12:44.274Z,98254.91
2023-01-18T13:13:50.521Z,98256.11
2023-01-18T13:15:08.676Z,98248.06
2023-01-18T13:16:38.753Z,98248.62
2023-01-18T13:17:48.162Z,98252.88
2023-01-18T13:19:08.947Z,98248.27
2023-01-18T13:20:17.817Z,98246.67
2023-01-18T13:21:29.941Z,98251.40
2023-01-18T13:22:41.525Z,98246.01
2023-01-18T13:24:06.374Z,98236.48
2023-01-18T13:25:23.530Z,98243.08
2023-01-18T13:26:34.258Z,98245.67
2023-01-18T13:29:14.395Z,98228.21
2023-01-18T13:30:18.821Z,98234.98
2023-01-18T13:31:24.842Z,98241.03
2023-01-18T13:32:38.525Z,98234.98
2023-01-18T13:33:47.181Z,98230.27
2023-01-18T13:35:20.128Z,98242.11
2023-01-18T13:36:16.886Z,98235.45
2023-01-18T13:37:45.602Z,98239.61
2023-01-18T13:39:03.048Z,98242.11
2023-01-18T13:40:06.710Z,98245.44
2023-01-18T13:41:12.596Z,98238.30
2023-01-18T13:42:25.123Z,98239.13
2023-01-18T13:43:37.473Z,98248.58
2023-01-18T13:44:43.002Z,98244.77
2023-01-18T13:47:31.679Z,98243.35
2023-01-18T13:48:49.558Z,98246.55
2023-01-18T19:44:21.673Z,98596.79
2023-01-18T19:45:28.891Z,98612.12
2023-01-18T19:46:30.659Z,98611.11
2023-01-18T19:47:34.237Z,98615.52
2023-01-18T19:48:38.858Z,98615.10
2023-01-18T19:49:42.626Z,98623.45
2023-01-18T19:50:45.600Z,98609.31
2023-01-18T19:51:48.159Z,98611.71
2023-01-18T19:52:50.884Z,98614.14
2023-01-18T19:53:54.626Z,98614.91
2023-01-18T19:55:01.674Z,98613.95
2023-01-18T19:56:07.592Z,98619.55
2023-01-18T19:57:08.731Z,98606.16
2023-01-18T19:58:11.246Z,98615.88
2023-01-18T19:59:14.643Z,98612.82
2023-01-18T20:00:18.596Z,98608.84
2023-01-18T20:01:35.383Z,98612.56
2023-01-18T20:02:26.869Z,98616.64
2023-01-18T20:03:29.591Z,98613.13
2023-01-18T20:04:33.467Z,98613.13
2023-01-18T20:05:35.673Z,98622.68
